Lee's Summit, Missouri
Current Conditions -  °F | °C
As of 5:07 AM on Wednesday 26 Nov 2014 (Local Time) from KLXT Reporting Station
Light Snow Light Snow  
Wind Chill: 25°   Ceiling: 3500
Heat Index: 33°   Visibility: 9mi
Dew Point: 32°   Wind: 9mph
Humidity: 96%   Direction: 210°SSW
Pressure: 29.94"   Gusts: NA
Location:  38.91°N, 94.38°W
Report Text: KLXT 261107Z AUTO 21008KT 9SM -SN FEW008 SCT015 OVC035 01/00 A2994 RMK AO2 P0001 T00060000 TSNO
Loading
Personal Weather Stations






























Interactive Weather Map New forecast layout! Learn more

10-Day Weather Forecast

Advertisements
Track Severe Weather on mobile